sensor_id;sensor_type;location;lat;lon;timestamp;P1;durP1;ratioP1;P2;durP2;ratioP2
29432;SDS011;16405;53.964;13.448;2023-12-07T00:02:08;529.72;;;91.75;;
29432;SDS011;16405;53.964;13.448;2023-12-07T00:04:39;540.42;;;87.05;;
29432;SDS011;16405;53.964;13.448;2023-12-07T00:07:05;584.38;;;87.97;;
29432;SDS011;16405;53.964;13.448;2023-12-07T00:09:31;592.53;;;88.30;;
29432;SDS011;16405;53.964;13.448;2023-12-07T00:11:57;539.03;;;87.50;;
29432;SDS011;16405;53.964;13.448;2023-12-07T00:14:23;565.00;;;92.32;;
29432;SDS011;16405;53.964;13.448;2023-12-07T00:16:51;503.70;;;87.88;;
29432;SDS011;16405;53.964;13.448;2023-12-07T00:19:19;569.80;;;88.65;;
29432;SDS011;16405;53.964;13.448;2023-12-07T00:21:45;590.17;;;90.53;;
29432;SDS011;16405;53.964;13.448;2023-12-07T00:24:10;617.72;;;88.40;;
29432;SDS011;16405;53.964;13.448;2023-12-07T00:26:36;616.65;;;92.05;;
29432;SDS011;16405;53.964;13.448;2023-12-07T00:29:03;511.10;;;90.05;;
29432;SDS011;16405;53.964;13.448;2023-12-07T00:31:37;588.67;;;90.45;;
29432;SDS011;16405;53.964;13.448;2023-12-07T00:34:03;606.13;;;91.45;;
29432;SDS011;16405;53.964;13.448;2023-12-07T00:36:29;560.03;;;90.05;;
29432;SDS011;16405;53.964;13.448;2023-12-07T00:38:55;615.63;;;91.07;;
29432;SDS011;16405;53.964;13.448;2023-12-07T00:41:29;545.97;;;85.13;;
29432;SDS011;16405;53.964;13.448;2023-12-07T00:43:55;608.65;;;84.22;;
29432;SDS011;16405;53.964;13.448;2023-12-07T00:46:21;607.88;;;92.05;;
29432;SDS011;16405;53.964;13.448;2023-12-07T00:48:47;592.08;;;87.85;;
29432;SDS011;16405;53.964;13.448;2023-12-07T00:51:24;610.20;;;89.30;;
29432;SDS011;16405;53.964;13.448;2023-12-07T00:53:50;562.85;;;88.00;;
29432;SDS011;16405;53.964;13.448;2023-12-07T00:56:18;680.70;;;94.82;;
29432;SDS011;16405;53.964;13.448;2023-12-07T00:58:46;680.83;;;98.32;;
29432;SDS011;16405;53.964;13.448;2023-12-07T01:01:12;635.67;;;97.70;;
29432;SDS011;16405;53.964;13.448;2023-12-07T01:03:38;667.80;;;91.80;;
29432;SDS011;16405;53.964;13.448;2023-12-07T01:06:06;645.55;;;93.07;;
29432;SDS011;16405;53.964;13.448;2023-12-07T01:08:32;703.92;;;93.07;;
29432;SDS011;16405;53.964;13.448;2023-12-07T01:11:03;710.33;;;98.00;;
29432;SDS011;16405;53.964;13.448;2023-12-07T01:13:30;687.42;;;95.07;;
29432;SDS011;16405;53.964;13.448;2023-12-07T01:15:58;720.60;;;100.55;;
29432;SDS011;16405;53.964;13.448;2023-12-07T01:18:24;748.30;;;100.25;;
29432;SDS011;16405;53.964;13.448;2023-12-07T01:20:55;733.53;;;100.22;;
29432;SDS011;16405;53.964;13.448;2023-12-07T01:23:21;810.50;;;104.00;;
29432;SDS011;16405;53.964;13.448;2023-12-07T01:25:46;835.72;;;102.93;;
29432;SDS011;16405;53.964;13.448;2023-12-07T01:28:12;905.40;;;105.88;;
29432;SDS011;16405;53.964;13.448;2023-12-07T01:30:47;803.15;;;106.53;;
29432;SDS011;16405;53.964;13.448;2023-12-07T01:33:13;762.80;;;101.38;;
29432;SDS011;16405;53.964;13.448;2023-12-07T01:35:40;815.13;;;103.00;;
29432;SDS011;16405;53.964;13.448;2023-12-07T01:38:08;714.63;;;101.75;;
29432;SDS011;16405;53.964;13.448;2023-12-07T01:40:39;910.25;;;102.25;;
29432;SDS011;16405;53.964;13.448;2023-12-07T01:43:05;843.03;;;102.60;;
29432;SDS011;16405;53.964;13.448;2023-12-07T01:45:31;866.80;;;103.07;;
29432;SDS011;16405;53.964;13.448;2023-12-07T01:47:56;898.60;;;96.85;;
29432;SDS011;16405;53.964;13.448;2023-12-07T01:50:24;836.92;;;97.40;;
29432;SDS011;16405;53.964;13.448;2023-12-07T01:53:00;830.90;;;98.10;;
29432;SDS011;16405;53.964;13.448;2023-12-07T01:55:27;829.47;;;101.18;;
29432;SDS011;16405;53.964;13.448;2023-12-07T01:57:59;952.13;;;109.45;;
29432;SDS011;16405;53.964;13.448;2023-12-07T02:00:27;847.22;;;104.18;;
29432;SDS011;16405;53.964;13.448;2023-12-07T02:02:53;800.33;;;102.28;;
29432;SDS011;16405;53.964;13.448;2023-12-07T02:05:28;784.88;;;104.88;;
29432;SDS011;16405;53.964;13.448;2023-12-07T02:07:58;794.00;;;95.85;;
29432;SDS011;16405;53.964;13.448;2023-12-07T02:10:24;834.22;;;100.53;;
29432;SDS011;16405;53.964;13.448;2023-12-07T02:12:54;735.42;;;104.63;;
29432;SDS011;16405;53.964;13.448;2023-12-07T02:15:20;838.22;;;105.07;;
29432;SDS011;16405;53.964;13.448;2023-12-07T02:17:52;894.78;;;102.25;;
29432;SDS011;16405;53.964;13.448;2023-12-07T02:20:35;908.63;;;102.07;;
29432;SDS011;16405;53.964;13.448;2023-12-07T02:23:10;881.30;;;103.07;;
29432;SDS011;16405;53.964;13.448;2023-12-07T02:25:48;717.83;;;105.43;;
29432;SDS011;16405;53.964;13.448;2023-12-07T02:28:25;971.08;;;105.95;;
29432;SDS011;16405;53.964;13.448;2023-12-07T02:30:51;871.65;;;102.30;;
29432;SDS011;16405;53.964;13.448;2023-12-07T02:33:17;838.03;;;104.38;;
29432;SDS011;16405;53.964;13.448;2023-12-07T02:35:42;933.20;;;108.28;;
29432;SDS011;16405;53.964;13.448;2023-12-07T02:38:11;897.65;;;107.05;;
29432;SDS011;16405;53.964;13.448;2023-12-07T02:40:41;919.05;;;99.72;;
29432;SDS011;16405;53.964;13.448;2023-12-07T02:43:09;953.17;;;104.88;;
29432;SDS011;16405;53.964;13.448;2023-12-07T02:45:36;984.22;;;104.20;;
29432;SDS011;16405;53.964;13.448;2023-12-07T02:48:09;1020.42;;;104.45;;
29432;SDS011;16405;53.964;13.448;2023-12-07T02:50:35;948.40;;;106.80;;
29432;SDS011;16405;53.964;13.448;2023-12-07T02:53:01;1087.50;;;108.15;;
29432;SDS011;16405;53.964;13.448;2023-12-07T02:55:27;944.40;;;106.95;;
29432;SDS011;16405;53.964;13.448;2023-12-07T02:58:03;894.67;;;105.88;;
29432;SDS011;16405;53.964;13.448;2023-12-07T03:00:29;950.58;;;106.63;;
29432;SDS011;16405;53.964;13.448;2023-12-07T03:02:55;927.75;;;105.78;;
29432;SDS011;16405;53.964;13.448;2023-12-07T03:05:29;826.67;;;107.05;;
29432;SDS011;16405;53.964;13.448;2023-12-07T03:07:58;1089.80;;;104.78;;
29432;SDS011;16405;53.964;13.448;2023-12-07T03:10:24;1109.70;;;110.90;;
29432;SDS011;16405;53.964;13.448;2023-12-07T03:12:49;1123.00;;;106.28;;
29432;SDS011;16405;53.964;13.448;2023-12-07T03:15:18;1164.63;;;109.47;;
29432;SDS011;16405;53.964;13.448;2023-12-07T03:17:44;1060.93;;;112.68;;
29432;SDS011;16405;53.964;13.448;2023-12-07T03:20:10;1035.05;;;108.68;;
29432;SDS011;16405;53.964;13.448;2023-12-07T03:22:36;1290.68;;;109.88;;
29432;SDS011;16405;53.964;13.448;2023-12-07T03:25:02;1359.25;;;114.68;;
29432;SDS011;16405;53.964;13.448;2023-12-07T03:27:37;1121.35;;;111.20;;
29432;SDS011;16405;53.964;13.448;2023-12-07T03:30:03;1175.35;;;110.63;;
29432;SDS011;16405;53.964;13.448;2023-12-07T03:32:30;1060.82;;;111.28;;
29432;SDS011;16405;53.964;13.448;2023-12-07T03:34:56;1002.80;;;108.25;;
29432;SDS011;16405;53.964;13.448;2023-12-07T03:37:22;1329.70;;;118.47;;
29432;SDS011;16405;53.964;13.448;2023-12-07T03:39:50;1305.60;;;122.28;;
29432;SDS011;16405;53.964;13.448;2023-12-07T03:42:16;1337.32;;;120.20;;
29432;SDS011;16405;53.964;13.448;2023-12-07T03:44:44;1399.50;;;125.40;;
29432;SDS011;16405;53.964;13.448;2023-12-07T03:47:10;1283.88;;;117.18;;
29432;SDS011;16405;53.964;13.448;2023-12-07T03:49:36;1325.93;;;118.15;;
29432;SDS011;16405;53.964;13.448;2023-12-07T03:52:06;1432.45;;;120.10;;
29432;SDS011;16405;53.964;13.448;2023-12-07T03:54:32;1420.25;;;114.93;;
29432;SDS011;16405;53.964;13.448;2023-12-07T03:56:58;1281.03;;;113.10;;
29432;SDS011;16405;53.964;13.448;2023-12-07T03:59:24;1365.82;;;117.32;;
29432;SDS011;16405;53.964;13.448;2023-12-07T04:01:49;1273.20;;;101.28;;
29432;SDS011;16405;53.964;13.448;2023-12-07T04:04:15;1408.15;;;114.60;;
29432;SDS011;16405;53.964;13.448;2023-12-07T04:06:44;1269.95;;;110.43;;
29432;SDS011;16405;53.964;13.448;2023-12-07T04:09:10;1345.07;;;107.65;;
29432;SDS011;16405;53.964;13.448;2023-12-07T04:11:36;1251.32;;;109.93;;
29432;SDS011;16405;53.964;13.448;2023-12-07T04:14:02;1391.13;;;110.05;;
29432;SDS011;16405;53.964;13.448;2023-12-07T04:16:27;1326.20;;;112.90;;
29432;SDS011;16405;53.964;13.448;2023-12-07T04:18:56;1595.63;;;120.72;;
29432;SDS011;16405;53.964;13.448;2023-12-07T04:21:26;1576.00;;;117.93;;
29432;SDS011;16405;53.964;13.448;2023-12-07T04:23:51;1558.93;;;119.00;;
29432;SDS011;16405;53.964;13.448;2023-12-07T04:26:17;1321.75;;;118.25;;
29432;SDS011;16405;53.964;13.448;2023-12-07T04:28:43;1522.70;;;122.20;;
29432;SDS011;16405;53.964;13.448;2023-12-07T04:31:09;1127.63;;;111.03;;
29432;SDS011;16405;53.964;13.448;2023-12-07T04:33:35;1351.25;;;116.10;;
29432;SDS011;16405;53.964;13.448;2023-12-07T04:36:09;1618.93;;;119.75;;
29432;SDS011;16405;53.964;13.448;2023-12-07T04:38:35;1710.60;;;124.07;;
29432;SDS011;16405;53.964;13.448;2023-12-07T04:41:01;1683.60;;;123.13;;
29432;SDS011;16405;53.964;13.448;2023-12-07T04:43:27;1576.35;;;116.55;;
29432;SDS011;16405;53.964;13.448;2023-12-07T04:45:58;1762.70;;;122.13;;
29432;SDS011;16405;53.964;13.448;2023-12-07T04:48:26;1764.18;;;120.57;;
29432;SDS011;16405;53.964;13.448;2023-12-07T04:50:52;1596.88;;;114.88;;
29432;SDS011;16405;53.964;13.448;2023-12-07T04:53:18;1627.03;;;122.32;;
29432;SDS011;16405;53.964;13.448;2023-12-07T04:55:47;1843.95;;;124.50;;
29432;SDS011;16405;53.964;13.448;2023-12-07T04:58:15;1596.03;;;121.25;;
29432;SDS011;16405;53.964;13.448;2023-12-07T05:00:41;1864.10;;;129.90;;
29432;SDS011;16405;53.964;13.448;2023-12-07T05:03:07;1734.93;;;122.72;;
29432;SDS011;16405;53.964;13.448;2023-12-07T05:05:33;1654.40;;;120.25;;
29432;SDS011;16405;53.964;13.448;2023-12-07T05:07:59;1882.00;;;125.43;;
29432;SDS011;16405;53.964;13.448;2023-12-07T05:10:32;1795.93;;;122.90;;
29432;SDS011;16405;53.964;13.448;2023-12-07T05:12:58;1823.13;;;124.45;;
29432;SDS011;16405;53.964;13.448;2023-12-07T05:15:23;1815.55;;;124.20;;
29432;SDS011;16405;53.964;13.448;2023-12-07T05:17:49;1999.90;;;131.50;;
29432;SDS011;16405;53.964;13.448;2023-12-07T05:20:25;1986.22;;;125.53;;
29432;SDS011;16405;53.964;13.448;2023-12-07T05:22:52;1999.90;;;132.40;;
29432;SDS011;16405;53.964;13.448;2023-12-07T05:25:18;1722.13;;;123.60;;
29432;SDS011;16405;53.964;13.448;2023-12-07T05:27:44;1836.18;;;129.18;;
29432;SDS011;16405;53.964;13.448;2023-12-07T05:30:17;1981.85;;;130.55;;
29432;SDS011;16405;53.964;13.448;2023-12-07T05:32:43;1999.90;;;135.38;;
29432;SDS011;16405;53.964;13.448;2023-12-07T05:35:09;1976.70;;;129.98;;
29432;SDS011;16405;53.964;13.448;2023-12-07T05:37:35;1999.90;;;133.48;;
29432;SDS011;16405;53.964;13.448;2023-12-07T05:40:10;1999.90;;;136.30;;
29432;SDS011;16405;53.964;13.448;2023-12-07T05:42:37;1947.60;;;127.97;;
29432;SDS011;16405;53.964;13.448;2023-12-07T05:45:03;1921.10;;;133.20;;
29432;SDS011;16405;53.964;13.448;2023-12-07T05:47:35;1999.90;;;135.77;;
29432;SDS011;16405;53.964;13.448;2023-12-07T05:50:01;1819.95;;;131.27;;
29432;SDS011;16405;53.964;13.448;2023-12-07T05:52:28;1967.40;;;125.97;;
29432;SDS011;16405;53.964;13.448;2023-12-07T05:54:54;1547.03;;;128.43;;
29432;SDS011;16405;53.964;13.448;2023-12-07T05:57:20;1957.65;;;131.20;;
29432;SDS011;16405;53.964;13.448;2023-12-07T05:59:49;1713.50;;;124.57;;
29432;SDS011;16405;53.964;13.448;2023-12-07T06:02:14;1999.90;;;140.48;;
29432;SDS011;16405;53.964;13.448;2023-12-07T06:04:40;1999.90;;;129.55;;
29432;SDS011;16405;53.964;13.448;2023-12-07T06:07:06;1999.90;;;127.60;;
29432;SDS011;16405;53.964;13.448;2023-12-07T06:09:32;1996.68;;;127.78;;
29432;SDS011;16405;53.964;13.448;2023-12-07T06:11:59;1953.00;;;122.78;;
29432;SDS011;16405;53.964;13.448;2023-12-07T06:14:25;1999.90;;;129.40;;
29432;SDS011;16405;53.964;13.448;2023-12-07T06:16:58;1999.90;;;133.07;;
29432;SDS011;16405;53.964;13.448;2023-12-07T06:19:24;1980.13;;;129.90;;
29432;SDS011;16405;53.964;13.448;2023-12-07T06:21:50;1999.90;;;137.82;;
29432;SDS011;16405;53.964;13.448;2023-12-07T06:24:16;1999.90;;;128.05;;
29432;SDS011;16405;53.964;13.448;2023-12-07T06:26:42;1999.90;;;133.63;;
29432;SDS011;16405;53.964;13.448;2023-12-07T06:29:11;1999.90;;;134.57;;
29432;SDS011;16405;53.964;13.448;2023-12-07T06:31:46;1999.90;;;129.30;;
29432;SDS011;16405;53.964;13.448;2023-12-07T06:34:14;1999.90;;;135.13;;
29432;SDS011;16405;53.964;13.448;2023-12-07T06:36:41;1999.90;;;130.68;;
29432;SDS011;16405;53.964;13.448;2023-12-07T06:39:11;1999.90;;;136.23;;
29432;SDS011;16405;53.964;13.448;2023-12-07T06:41:47;1999.90;;;129.45;;
29432;SDS011;16405;53.964;13.448;2023-12-07T06:44:12;1999.90;;;134.40;;
29432;SDS011;16405;53.964;13.448;2023-12-07T06:46:52;1999.90;;;130.70;;
29432;SDS011;16405;53.964;13.448;2023-12-07T06:49:38;1963.30;;;124.20;;
29432;SDS011;16405;53.964;13.448;2023-12-07T06:52:06;1999.90;;;121.35;;
29432;SDS011;16405;53.964;13.448;2023-12-07T06:54:33;1997.47;;;123.78;;
29432;SDS011;16405;53.964;13.448;2023-12-07T06:56:59;1999.90;;;136.00;;
29432;SDS011;16405;53.964;13.448;2023-12-07T06:59:28;1589.13;;;118.22;;
29432;SDS011;16405;53.964;13.448;2023-12-07T07:02:03;1879.60;;;123.32;;
29432;SDS011;16405;53.964;13.448;2023-12-07T07:04:29;1999.90;;;128.55;;
29432;SDS011;16405;53.964;13.448;2023-12-07T07:06:55;1999.90;;;130.60;;
29432;SDS011;16405;53.964;13.448;2023-12-07T07:09:26;1999.90;;;129.52;;
29432;SDS011;16405;53.964;13.448;2023-12-07T07:11:51;1999.90;;;136.18;;
29432;SDS011;16405;53.964;13.448;2023-12-07T07:14:18;1999.90;;;127.05;;
29432;SDS011;16405;53.964;13.448;2023-12-07T07:16:44;1895.07;;;128.13;;
29432;SDS011;16405;53.964;13.448;2023-12-07T07:19:10;1608.13;;;117.15;;
29432;SDS011;16405;53.964;13.448;2023-12-07T07:21:36;1685.35;;;120.65;;
29432;SDS011;16405;53.964;13.448;2023-12-07T07:24:09;1999.90;;;128.32;;
29432;SDS011;16405;53.964;13.448;2023-12-07T07:26:37;1999.90;;;128.20;;
29432;SDS011;16405;53.964;13.448;2023-12-07T07:29:03;1877.18;;;120.78;;
29432;SDS011;16405;53.964;13.448;2023-12-07T07:31:34;1890.63;;;127.28;;
29432;SDS011;16405;53.964;13.448;2023-12-07T07:34:01;1714.75;;;123.53;;
29432;SDS011;16405;53.964;13.448;2023-12-07T07:36:27;1988.18;;;124.22;;
29432;SDS011;16405;53.964;13.448;2023-12-07T07:38:54;1878.03;;;120.75;;
29432;SDS011;16405;53.964;13.448;2023-12-07T07:41:20;1999.90;;;124.78;;
29432;SDS011;16405;53.964;13.448;2023-12-07T07:43:51;1999.90;;;125.20;;
29432;SDS011;16405;53.964;13.448;2023-12-07T07:46:16;1768.75;;;120.55;;
29432;SDS011;16405;53.964;13.448;2023-12-07T07:48:42;1988.45;;;126.78;;
29432;SDS011;16405;53.964;13.448;2023-12-07T07:51:08;1837.93;;;124.22;;
29432;SDS011;16405;53.964;13.448;2023-12-07T07:53:34;1970.45;;;126.85;;
29432;SDS011;16405;53.964;13.448;2023-12-07T07:56:02;1641.85;;;122.47;;
29432;SDS011;16405;53.964;13.448;2023-12-07T07:58:31;1999.90;;;126.38;;
29432;SDS011;16405;53.964;13.448;2023-12-07T08:00:57;1851.63;;;123.43;;
29432;SDS011;16405;53.964;13.448;2023-12-07T08:03:23;1938.03;;;124.95;;
29432;SDS011;16405;53.964;13.448;2023-12-07T08:05:49;1999.90;;;135.63;;
29432;SDS011;16405;53.964;13.448;2023-12-07T08:08:25;1924.35;;;131.75;;
29432;SDS011;16405;53.964;13.448;2023-12-07T08:10:51;1817.70;;;124.60;;
29432;SDS011;16405;53.964;13.448;2023-12-07T08:13:17;1999.90;;;172.10;;
29432;SDS011;16405;53.964;13.448;2023-12-07T08:15:43;1986.03;;;145.45;;
29432;SDS011;16405;53.964;13.448;2023-12-07T08:18:13;1941.70;;;122.72;;
29432;SDS011;16405;53.964;13.448;2023-12-07T08:20:39;1984.28;;;126.85;;
29432;SDS011;16405;53.964;13.448;2023-12-07T08:23:05;1263.45;;;109.25;;
29432;SDS011;16405;53.964;13.448;2023-12-07T08:25:31;1552.10;;;116.60;;
29432;SDS011;16405;53.964;13.448;2023-12-07T08:27:57;1744.80;;;122.45;;
29432;SDS011;16405;53.964;13.448;2023-12-07T08:30:23;1896.15;;;125.47;;
29432;SDS011;16405;53.964;13.448;2023-12-07T08:32:48;1884.28;;;122.93;;
29432;SDS011;16405;53.964;13.448;2023-12-07T08:35:24;1715.30;;;114.95;;
29432;SDS011;16405;53.964;13.448;2023-12-07T08:37:49;1912.93;;;119.60;;
29432;SDS011;16405;53.964;13.448;2023-12-07T08:40:23;1600.82;;;115.07;;
29432;SDS011;16405;53.964;13.448;2023-12-07T08:42:49;1700.10;;;117.95;;
29432;SDS011;16405;53.964;13.448;2023-12-07T08:45:15;1165.88;;;107.88;;
29432;SDS011;16405;53.964;13.448;2023-12-07T08:47:41;1520.90;;;116.50;;
29432;SDS011;16405;53.964;13.448;2023-12-07T08:50:07;1269.65;;;108.50;;
29432;SDS011;16405;53.964;13.448;2023-12-07T08:52:36;1353.22;;;114.13;;
29432;SDS011;16405;53.964;13.448;2023-12-07T08:55:02;1278.65;;;109.57;;
29432;SDS011;16405;53.964;13.448;2023-12-07T08:57:28;1219.97;;;104.20;;
29432;SDS011;16405;53.964;13.448;2023-12-07T08:59:54;1010.97;;;99.35;;
29432;SDS011;16405;53.964;13.448;2023-12-07T09:02:20;1172.25;;;100.60;;
29432;SDS011;16405;53.964;13.448;2023-12-07T09:04:46;1237.15;;;101.88;;
29432;SDS011;16405;53.964;13.448;2023-12-07T09:07:21;1315.28;;;100.07;;
29432;SDS011;16405;53.964;13.448;2023-12-07T09:09:47;1030.60;;;95.38;;
29432;SDS011;16405;53.964;13.448;2023-12-07T09:12:13;1026.82;;;91.93;;
29432;SDS011;16405;53.964;13.448;2023-12-07T09:14:43;952.35;;;86.78;;
29432;SDS011;16405;53.964;13.448;2023-12-07T09:17:12;1034.80;;;86.40;;
29432;SDS011;16405;53.964;13.448;2023-12-07T09:19:40;1167.63;;;90.70;;
29432;SDS011;16405;53.964;13.448;2023-12-07T09:22:06;757.47;;;79.70;;
29432;SDS011;16405;53.964;13.448;2023-12-07T09:24:35;914.63;;;86.78;;
29432;SDS011;16405;53.964;13.448;2023-12-07T09:27:03;1023.05;;;85.07;;
29432;SDS011;16405;53.964;13.448;2023-12-07T09:29:32;742.03;;;78.82;;
29432;SDS011;16405;53.964;13.448;2023-12-07T09:31:58;878.25;;;79.55;;
29432;SDS011;16405;53.964;13.448;2023-12-07T09:34:27;1299.35;;;90.03;;
29432;SDS011;16405;53.964;13.448;2023-12-07T09:37:14;1069.18;;;82.88;;
29432;SDS011;16405;53.964;13.448;2023-12-07T09:39:42;949.97;;;80.88;;
29432;SDS011;16405;53.964;13.448;2023-12-07T09:42:19;1077.72;;;81.50;;
29432;SDS011;16405;53.964;13.448;2023-12-07T09:44:47;965.85;;;79.57;;
29432;SDS011;16405;53.964;13.448;2023-12-07T09:47:23;1132.65;;;82.22;;
29432;SDS011;16405;53.964;13.448;2023-12-07T09:50:02;1185.78;;;82.38;;
29432;SDS011;16405;53.964;13.448;2023-12-07T09:52:30;1094.43;;;79.15;;
29432;SDS011;16405;53.964;13.448;2023-12-07T09:54:57;1116.38;;;80.40;;
29432;SDS011;16405;53.964;13.448;2023-12-07T09:57:30;1017.25;;;78.63;;
29432;SDS011;16405;53.964;13.448;2023-12-07T09:59:58;1044.80;;;78.35;;
29432;SDS011;16405;53.964;13.448;2023-12-07T10:02:26;1061.50;;;78.13;;
29432;SDS011;16405;53.964;13.448;2023-12-07T10:05:05;1042.45;;;77.65;;
29432;SDS011;16405;53.964;13.448;2023-12-07T10:07:35;971.47;;;76.05;;
29432;SDS011;16405;53.964;13.448;2023-12-07T10:10:15;899.05;;;72.75;;
29432;SDS011;16405;53.964;13.448;2023-12-07T10:12:54;918.33;;;75.03;;
29432;SDS011;16405;53.964;13.448;2023-12-07T10:15:24;916.80;;;78.15;;
29432;SDS011;16405;53.964;13.448;2023-12-07T10:17:56;911.22;;;76.07;;
29432;SDS011;16405;53.964;13.448;2023-12-07T10:20:25;903.50;;;78.28;;
29432;SDS011;16405;53.964;13.448;2023-12-07T10:23:07;890.28;;;78.28;;
29432;SDS011;16405;53.964;13.448;2023-12-07T10:25:40;943.92;;;76.55;;
29432;SDS011;16405;53.964;13.448;2023-12-07T10:28:10;961.92;;;73.97;;
29432;SDS011;16405;53.964;13.448;2023-12-07T10:30:37;914.78;;;74.03;;
29432;SDS011;16405;53.964;13.448;2023-12-07T10:33:08;856.70;;;73.93;;
29432;SDS011;16405;53.964;13.448;2023-12-07T10:35:38;858.80;;;76.72;;
29432;SDS011;16405;53.964;13.448;2023-12-07T10:38:16;999.95;;;76.28;;
29432;SDS011;16405;53.964;13.448;2023-12-07T10:40:59;1016.53;;;76.88;;
29432;SDS011;16405;53.964;13.448;2023-12-07T10:43:37;953.28;;;73.57;;
29432;SDS011;16405;53.964;13.448;2023-12-07T10:46:13;1055.35;;;72.28;;
29432;SDS011;16405;53.964;13.448;2023-12-07T10:48:44;1095.40;;;75.20;;
29432;SDS011;16405;53.964;13.448;2023-12-07T10:51:23;1129.50;;;74.55;;
29432;SDS011;16405;53.964;13.448;2023-12-07T10:54:22;1039.13;;;69.38;;
29432;SDS011;16405;53.964;13.448;2023-12-07T10:56:57;1125.25;;;69.90;;
29432;SDS011;16405;53.964;13.448;2023-12-07T10:59:27;1124.13;;;72.35;;
29432;SDS011;16405;53.964;13.448;2023-12-07T11:01:58;1212.75;;;69.63;;
29432;SDS011;16405;53.964;13.448;2023-12-07T11:04:28;1058.40;;;67.05;;
29432;SDS011;16405;53.964;13.448;2023-12-07T11:06:56;1156.38;;;67.40;;
29432;SDS011;16405;53.964;13.448;2023-12-07T11:09:32;1076.53;;;66.00;;
29432;SDS011;16405;53.964;13.448;2023-12-07T11:12:10;1091.07;;;67.97;;
29432;SDS011;16405;53.964;13.448;2023-12-07T11:15:05;1151.60;;;68.00;;
29432;SDS011;16405;53.964;13.448;2023-12-07T11:17:51;1247.43;;;67.78;;
29432;SDS011;16405;53.964;13.448;2023-12-07T11:20:42;1091.10;;;62.30;;
29432;SDS011;16405;53.964;13.448;2023-12-07T11:23:22;1083.72;;;65.55;;
29432;SDS011;16405;53.964;13.448;2023-12-07T11:26:00;609.28;;;59.85;;
29432;SDS011;16405;53.964;13.448;2023-12-07T11:34:47;900.80;;;61.70;;
29432;SDS011;16405;53.964;13.448;2023-12-07T11:40:56;852.28;;;59.17;;
29432;SDS011;16405;53.964;13.448;2023-12-07T12:00:30;822.13;;;59.85;;
29432;SDS011;16405;53.964;13.448;2023-12-07T12:03:09;726.55;;;58.58;;
29432;SDS011;16405;53.964;13.448;2023-12-07T12:15:58;534.38;;;56.40;;
29432;SDS011;16405;53.964;13.448;2023-12-07T12:18:50;472.00;;;55.47;;
29432;SDS011;16405;53.964;13.448;2023-12-07T12:21:20;496.20;;;57.38;;
29432;SDS011;16405;53.964;13.448;2023-12-07T12:28:08;385.02;;;56.88;;
29432;SDS011;16405;53.964;13.448;2023-12-07T12:30:49;391.08;;;58.10;;
29432;SDS011;16405;53.964;13.448;2023-12-07T12:40:43;354.27;;;55.72;;
29432;SDS011;16405;53.964;13.448;2023-12-07T12:43:27;353.23;;;55.10;;
29432;SDS011;16405;53.964;13.448;2023-12-07T12:59:26;325.05;;;61.05;;
29432;SDS011;16405;53.964;13.448;2023-12-07T13:04:56;287.10;;;57.22;;
29432;SDS011;16405;53.964;13.448;2023-12-07T13:07:38;280.33;;;55.40;;
29432;SDS011;16405;53.964;13.448;2023-12-07T13:13:18;273.30;;;53.83;;
29432;SDS011;16405;53.964;13.448;2023-12-07T13:15:57;288.20;;;54.42;;
29432;SDS011;16405;53.964;13.448;2023-12-07T13:21:16;250.00;;;53.85;;
29432;SDS011;16405;53.964;13.448;2023-12-07T13:44:11;270.77;;;54.65;;
29432;SDS011;16405;53.964;13.448;2023-12-07T13:49:50;242.25;;;54.40;;
29432;SDS011;16405;53.964;13.448;2023-12-07T13:52:58;256.60;;;51.95;;
29432;SDS011;16405;53.964;13.448;2023-12-07T13:55:24;263.02;;;51.30;;
29432;SDS011;16405;53.964;13.448;2023-12-07T13:58:38;236.35;;;49.42;;
29432;SDS011;16405;53.964;13.448;2023-12-07T14:04:09;240.45;;;47.30;;
29432;SDS011;16405;53.964;13.448;2023-12-07T14:06:38;255.88;;;47.45;;
29432;SDS011;16405;53.964;13.448;2023-12-07T14:09:19;253.32;;;48.60;;
29432;SDS011;16405;53.964;13.448;2023-12-07T14:12:28;233.18;;;47.70;;
29432;SDS011;16405;53.964;13.448;2023-12-07T14:15:56;219.60;;;44.30;;
29432;SDS011;16405;53.964;13.448;2023-12-07T14:18:29;244.80;;;48.92;;
29432;SDS011;16405;53.964;13.448;2023-12-07T14:21:00;239.27;;;48.90;;
29432;SDS011;16405;53.964;13.448;2023-12-07T14:23:41;257.65;;;49.20;;
29432;SDS011;16405;53.964;13.448;2023-12-07T14:29:19;248.23;;;47.92;;
29432;SDS011;16405;53.964;13.448;2023-12-07T14:35:19;211.40;;;50.13;;
29432;SDS011;16405;53.964;13.448;2023-12-07T14:37:49;205.80;;;47.60;;
29432;SDS011;16405;53.964;13.448;2023-12-07T14:43:59;235.95;;;48.40;;
29432;SDS011;16405;53.964;13.448;2023-12-07T14:46:38;241.02;;;48.75;;
29432;SDS011;16405;53.964;13.448;2023-12-07T14:58:47;252.38;;;52.22;;
29432;SDS011;16405;53.964;13.448;2023-12-07T15:05:30;262.55;;;51.65;;
29432;SDS011;16405;53.964;13.448;2023-12-07T15:07:59;290.95;;;52.30;;
29432;SDS011;16405;53.964;13.448;2023-12-07T15:10:49;320.83;;;55.53;;
29432;SDS011;16405;53.964;13.448;2023-12-07T15:13:17;265.17;;;52.60;;
29432;SDS011;16405;53.964;13.448;2023-12-07T15:15:59;286.05;;;53.08;;
29432;SDS011;16405;53.964;13.448;2023-12-07T15:26:07;279.20;;;49.50;;
29432;SDS011;16405;53.964;13.448;2023-12-07T15:32:28;288.15;;;52.30;;
29432;SDS011;16405;53.964;13.448;2023-12-07T15:37:48;291.15;;;51.15;;
29432;SDS011;16405;53.964;13.448;2023-12-07T15:43:39;289.55;;;50.15;;
29432;SDS011;16405;53.964;13.448;2023-12-07T15:49:49;279.75;;;47.92;;
29432;SDS011;16405;53.964;13.448;2023-12-07T16:03:06;292.40;;;48.83;;
29432;SDS011;16405;53.964;13.448;2023-12-07T16:09:17;302.38;;;50.65;;
29432;SDS011;16405;53.964;13.448;2023-12-07T16:18:46;327.72;;;54.22;;
29432;SDS011;16405;53.964;13.448;2023-12-07T16:21:19;308.13;;;53.20;;
29432;SDS011;16405;53.964;13.448;2023-12-07T16:23:59;359.85;;;54.30;;
29432;SDS011;16405;53.964;13.448;2023-12-07T16:27:11;333.58;;;51.85;;
29432;SDS011;16405;53.964;13.448;2023-12-07T16:29:48;331.67;;;54.23;;
29432;SDS011;16405;53.964;13.448;2023-12-07T16:35:39;334.27;;;51.17;;
29432;SDS011;16405;53.964;13.448;2023-12-07T16:38:20;322.00;;;52.00;;
29432;SDS011;16405;53.964;13.448;2023-12-07T16:40:58;293.50;;;47.92;;
29432;SDS011;16405;53.964;13.448;2023-12-07T16:43:40;355.13;;;53.30;;
29432;SDS011;16405;53.964;13.448;2023-12-07T16:46:06;326.52;;;51.47;;
29432;SDS011;16405;53.964;13.448;2023-12-07T16:52:30;339.23;;;49.97;;
29432;SDS011;16405;53.964;13.448;2023-12-07T16:55:39;359.30;;;53.83;;